Time;durP1;ratioP1;P1;durP2;ratioP2;P2;SDS_P1;SDS_P2;PMS_P1;PMS_P2;Temp;Humidity;BMP_temperature;BMP_pressure;BME280_temperature;BME280_humidity;BME280_pressure;Samples;Min_cycle;Max_cycle;Signal;HPM_P1;HPM_P2
2022/06/27 00:00:16;;;;;;;;;;;;;;;16.64;100.00;101552.44;2612421;36;19951;-56
2022/06/27 00:02:44;;;;;;;;;;;;;;;16.56;100.00;101554.25;2609582;36;19958;-56
2022/06/27 00:05:12;;;;;;;;;;;;;;;16.61;100.00;101549.22;2609119;36;20339;-58
2022/06/27 00:07:40;;;;;;;;;;;;;;;16.61;100.00;101543.78;2610688;31;20559;-59
2022/06/27 00:10:09;;;;;;;;;;;;;;;16.53;100.00;101547.25;2608268;31;19946;-61
2022/06/27 00:12:38;;;;;;;;;;;;;;;16.46;100.00;101533.47;2610033;36;19958;-60
2022/06/27 00:15:10;;;;;;;;;;;;;;;16.32;100.00;101533.19;2609410;36;19950;-57
2022/06/27 00:17:39;;;;;;;;;;;;;;;16.43;100.00;101531.06;2610383;36;19950;-57
2022/06/27 00:20:08;;;;;;;;;;;;;;;16.42;100.00;101547.53;2608724;31;20346;-63
2022/06/27 00:22:36;;;;;;;;;;;;;;;16.34;100.00;101552.88;2609581;36;19955;-59
2022/06/27 00:25:04;;;;;;;;;;;;;;;16.27;100.00;101547.25;2609287;36;19951;-54
2022/06/27 00:27:32;;;;;;;;;;;;;;;16.26;100.00;101554.53;2610523;36;20860;-61
2022/06/27 00:30:03;;;;;;;;;;;;;;;16.21;100.00;101565.03;2610472;36;19981;-59
2022/06/27 00:32:34;;;;;;;;;;;;;;;16.14;100.00;101563.94;2609584;31;20021;-58
2022/06/27 00:35:02;;;;;;;;;;;;;;;16.19;100.00;101566.19;2608257;31;19950;-58
2022/06/27 00:37:30;;;;;;;;;;;;;;;16.20;100.00;101574.16;2608989;36;20357;-64
2022/06/27 00:39:58;;;;;;;;;;;;;;;16.19;100.00;101574.31;2609591;31;19973;-58
2022/06/27 00:42:26;;;;;;;;;;;;;;;16.37;100.00;101583.34;2610023;31;20483;-58
2022/06/27 00:44:55;;;;;;;;;;;;;;;16.60;100.00;101574.66;2608264;36;19954;-61
2022/06/27 00:47:23;;;;;;;;;;;;;;;16.55;100.00;101569.72;2609142;36;19981;-60
2022/06/27 00:49:53;;;;;;;;;;;;;;;16.43;100.00;101579.09;2607513;36;19950;-58
2022/06/27 00:52:21;;;;;;;;;;;;;;;16.43;100.00;101582.69;2611833;36;20929;-58
2022/06/27 00:54:50;;;;;;;;;;;;;;;16.42;100.00;101575.53;2611589;31;20389;-59
2022/06/27 00:57:19;;;;;;;;;;;;;;;16.35;100.00;101584.50;2612398;31;20661;-59
2022/06/27 00:59:47;;;;;;;;;;;;;;;16.20;100.00;101582.31;2613576;31;20344;-58
2022/06/27 01:02:15;;;;;;;;;;;;;;;16.17;100.00;101585.34;2611720;36;19951;-60
2022/06/27 01:04:47;;;;;;;;;;;;;;;16.18;100.00;101578.03;2611093;36;19950;-64
2022/06/27 01:07:17;;;;;;;;;;;;;;;16.14;100.00;101577.50;2610871;36;19955;-63
2022/06/27 01:09:45;;;;;;;;;;;;;;;16.20;100.00;101567.91;2613057;36;19973;-63
2022/06/27 01:12:14;;;;;;;;;;;;;;;16.23;100.00;101562.16;2603700;36;20241;-58
2022/06/27 01:14:42;;;;;;;;;;;;;;;16.23;100.00;101579.28;2612255;36;19954;-62
2022/06/27 01:17:12;;;;;;;;;;;;;;;16.11;100.00;101581.38;2612182;36;19950;-58
2022/06/27 01:19:40;;;;;;;;;;;;;;;16.16;100.00;101569.22;2614076;31;20321;-58
2022/06/27 01:22:11;;;;;;;;;;;;;;;16.23;100.00;101576.56;2611672;31;19954;-60
2022/06/27 01:24:40;;;;;;;;;;;;;;;16.17;100.00;101574.47;2612227;31;19978;-63
2022/06/27 01:27:08;;;;;;;;;;;;;;;16.19;100.00;101574.31;2612230;31;19950;-58
2022/06/27 01:29:36;;;;;;;;;;;;;;;16.21;100.00;101575.00;2611627;31;19950;-59
2022/06/27 01:32:05;;;;;;;;;;;;;;;16.30;100.00;101568.66;2613291;31;19958;-59
2022/06/27 01:34:33;;;;;;;;;;;;;;;16.29;100.00;101565.06;2610329;36;20245;-58
2022/06/27 01:37:01;;;;;;;;;;;;;;;16.25;100.00;101570.97;2613130;36;20545;-58
2022/06/27 01:39:32;;;;;;;;;;;;;;;16.22;100.00;101561.28;2613232;36;19950;-57
2022/06/27 01:42:01;;;;;;;;;;;;;;;16.23;100.00;101557.56;2613608;31;19973;-58
2022/06/27 01:44:30;;;;;;;;;;;;;;;16.17;100.00;101551.91;2613431;31;19985;-59
2022/06/27 01:47:03;;;;;;;;;;;;;;;16.20;100.00;101552.44;2613610;31;20315;-59
2022/06/27 01:49:32;;;;;;;;;;;;;;;16.26;100.00;101538.22;2611590;36;20045;-60
2022/06/27 01:52:01;;;;;;;;;;;;;;;16.41;100.00;101543.94;2612361;36;19954;-58
2022/06/27 01:54:32;;;;;;;;;;;;;;;16.57;100.00;101539.66;2612953;31;19946;-59
2022/06/27 01:57:00;;;;;;;;;;;;;;;16.60;100.00;101542.91;2612973;36;19950;-58
2022/06/27 01:59:29;;;;;;;;;;;;;;;16.53;100.00;101546.41;2613846;31;20341;-58
2022/06/27 02:01:58;;;;;;;;;;;;;;;16.44;100.00;101549.09;2612740;36;19947;-59
2022/06/27 02:04:26;;;;;;;;;;;;;;;16.43;100.00;101552.81;2611864;36;20000;-61
2022/06/27 02:06:55;;;;;;;;;;;;;;;16.37;100.00;101542.59;2613349;36;20407;-57
2022/06/27 02:09:23;;;;;;;;;;;;;;;16.35;100.00;101544.59;2611603;36;19998;-59
2022/06/27 02:11:55;;;;;;;;;;;;;;;16.36;100.00;101550.88;2612714;31;19985;-59
2022/06/27 02:14:23;;;;;;;;;;;;;;;16.42;100.00;101545.66;2611467;36;19960;-55
2022/06/27 02:16:51;;;;;;;;;;;;;;;16.45;100.00;101545.34;2613577;36;20416;-58
2022/06/27 02:19:21;;;;;;;;;;;;;;;16.48;100.00;101540.63;2611819;36;19954;-58
2022/06/27 02:21:49;;;;;;;;;;;;;;;16.41;100.00;101541.22;2611781;36;19958;-61
2022/06/27 02:24:17;;;;;;;;;;;;;;;16.42;100.00;101534.78;2612278;36;20468;-58
2022/06/27 02:26:46;;;;;;;;;;;;;;;16.45;100.00;101534.47;2609665;36;19954;-58
2022/06/27 02:29:17;;;;;;;;;;;;;;;16.50;100.00;101533.16;2612219;36;20291;-59
2022/06/27 02:31:49;;;;;;;;;;;;;;;16.42;100.00;101521.22;2612785;36;19970;-62
2022/06/27 02:34:17;;;;;;;;;;;;;;;16.47;100.00;101523.44;2610228;31;19981;-58
2022/06/27 02:36:46;;;;;;;;;;;;;;;16.46;100.00;101525.31;2610594;36;19979;-59
2022/06/27 02:39:18;;;;;;;;;;;;;;;16.22;100.00;101522.41;2613498;36;19953;-60
2022/06/27 02:41:47;;;;;;;;;;;;;;;16.10;100.00;101514.50;2611015;36;19974;-57
2022/06/27 02:44:17;;;;;;;;;;;;;;;16.24;100.00;101509.53;2612869;36;20064;-57
2022/06/27 02:46:45;;;;;;;;;;;;;;;16.31;100.00;101510.59;2613305;36;19961;-60
2022/06/27 02:49:14;;;;;;;;;;;;;;;16.27;100.00;101499.19;2611965;36;19985;-54
2022/06/27 02:51:44;;;;;;;;;;;;;;;16.25;100.00;101508.50;2612556;36;20348;-59
2022/06/27 02:54:13;;;;;;;;;;;;;;;16.26;100.00;101512.94;2611791;31;19947;-64
2022/06/27 02:56:44;;;;;;;;;;;;;;;16.25;100.00;101527.53;2610377;36;20403;-58
2022/06/27 02:59:16;;;;;;;;;;;;;;;16.23;100.00;101515.97;2611077;36;19958;-60
2022/06/27 03:01:50;;;;;;;;;;;;;;;16.26;100.00;101516.50;2611918;36;19946;-58
2022/06/27 03:04:18;;;;;;;;;;;;;;;16.29;100.00;101507.19;2609922;36;19969;-58
2022/06/27 03:06:49;;;;;;;;;;;;;;;16.20;100.00;101508.13;2611527;36;20351;-57
2022/06/27 03:09:17;;;;;;;;;;;;;;;16.17;100.00;101511.19;2612741;36;19954;-60
2022/06/27 03:11:48;;;;;;;;;;;;;;;16.17;100.00;101498.44;2612557;36;20913;-64
2022/06/27 03:14:16;;;;;;;;;;;;;;;16.15;100.00;101513.19;2603839;31;20533;-58
2022/06/27 03:16:46;;;;;;;;;;;;;;;16.09;100.00;101501.94;2612574;36;19951;-59
2022/06/27 03:19:15;;;;;;;;;;;;;;;16.14;100.00;101497.91;2612925;36;19985;-59
2022/06/27 03:21:43;;;;;;;;;;;;;;;16.21;100.00;101493.53;2613578;36;19958;-61
2022/06/27 03:24:11;;;;;;;;;;;;;;;16.18;100.00;101482.97;2611787;36;20452;-54
2022/06/27 03:26:39;;;;;;;;;;;;;;;16.20;100.00;101480.97;2610618;36;19958;-61
2022/06/27 03:29:07;;;;;;;;;;;;;;;16.22;100.00;101476.22;2611909;36;19951;-56
2022/06/27 03:31:35;;;;;;;;;;;;;;;16.30;100.00;101470.88;2613148;31;19951;-64
2022/06/27 03:34:06;;;;;;;;;;;;;;;16.16;100.00;101463.28;2611345;36;19946;-58
2022/06/27 03:36:34;;;;;;;;;;;;;;;15.94;100.00;101460.06;2612819;36;19947;-58
2022/06/27 03:39:02;;;;;;;;;;;;;;;15.75;100.00;101466.47;2612486;36;19955;-61
2022/06/27 03:41:31;;;;;;;;;;;;;;;15.59;100.00;101465.31;2614140;36;20333;-59
2022/06/27 03:43:59;;;;;;;;;;;;;;;15.55;100.00;101477.47;2611369;36;20311;-58
2022/06/27 03:46:27;;;;;;;;;;;;;;;15.48;100.00;101470.97;2612746;36;19954;-58
2022/06/27 03:51:50;;;;;;;;;;;;;;;15.46;100.00;101462.13;2611666;36;20456;-60
2022/06/27 03:54:18;;;;;;;;;;;;;;;15.33;100.00;101469.78;2612007;36;20452;-61
2022/06/27 03:56:47;;;;;;;;;;;;;;;15.18;100.00;101469.41;2612594;36;19974;-60
2022/06/27 03:59:15;;;;;;;;;;;;;;;15.24;100.00;101475.09;2612021;36;19950;-58
2022/06/27 04:01:43;;;;;;;;;;;;;;;15.32;100.00;101471.63;2612765;36;19958;-59
2022/06/27 04:04:12;;;;;;;;;;;;;;;15.33;100.00;101467.91;2610900;36;19953;-58
2022/06/27 04:06:40;;;;;;;;;;;;;;;15.38;100.00;101457.44;2612894;36;19946;-58
2022/06/27 04:09:11;;;;;;;;;;;;;;;15.40;100.00;101460.88;2610282;36;19947;-63
2022/06/27 04:11:39;;;;;;;;;;;;;;;15.43;100.00;101451.59;2612080;36;19951;-57
2022/06/27 04:14:07;;;;;;;;;;;;;;;15.45;100.00;101451.44;2612208;36;20462;-57
2022/06/27 04:16:35;;;;;;;;;;;;;;;15.39;100.00;101450.19;2610895;36;21644;-57
2022/06/27 04:19:03;;;;;;;;;;;;;;;15.43;100.00;101443.44;2611616;36;20372;-59
2022/06/27 04:21:32;;;;;;;;;;;;;;;15.49;100.00;101452.81;2611579;31;20367;-58
2022/06/27 04:24:02;;;;;;;;;;;;;;;15.47;100.00;101454.84;2611828;36;19983;-58
2022/06/27 04:26:32;;;;;;;;;;;;;;;15.30;100.00;101461.97;2611136;36;19946;-58
2022/06/27 04:29:01;;;;;;;;;;;;;;;15.30;100.00;101462.81;2610756;36;19951;-62
2022/06/27 04:31:29;;;;;;;;;;;;;;;15.39;100.00;101461.03;2610605;36;20359;-59
2022/06/27 04:33:57;;;;;;;;;;;;;;;15.54;100.00;101464.06;2613305;36;19989;-55
2022/06/27 04:36:26;;;;;;;;;;;;;;;15.58;100.00;101469.03;2613159;36;19951;-57
2022/06/27 04:38:55;;;;;;;;;;;;;;;15.56;100.00;101475.59;2612740;36;19958;-58
2022/06/27 04:41:25;;;;;;;;;;;;;;;15.80;100.00;101479.59;2612204;36;19997;-58
2022/06/27 04:43:56;;;;;;;;;;;;;;;15.88;100.00;101472.38;2612165;36;19950;-53
2022/06/27 04:46:24;;;;;;;;;;;;;;;16.13;100.00;101463.59;2612783;36;19950;-61
2022/06/27 04:48:52;;;;;;;;;;;;;;;16.50;100.00;101459.78;2609524;36;19950;-54
2022/06/27 04:51:21;;;;;;;;;;;;;;;16.82;100.00;101476.28;2612218;36;19953;-58
2022/06/27 04:53:49;;;;;;;;;;;;;;;16.99;100.00;101466.38;2612387;31;19950;-58
2022/06/27 04:56:19;;;;;;;;;;;;;;;17.07;100.00;101479.13;2611061;36;19978;-60
2022/06/27 04:58:47;;;;;;;;;;;;;;;17.13;100.00;101481.19;2610199;36;20033;-57
2022/06/27 05:01:17;;;;;;;;;;;;;;;17.29;100.00;101483.13;2611002;36;20433;-58
2022/06/27 05:03:45;;;;;;;;;;;;;;;17.41;100.00;101471.94;2613163;36;20340;-58
2022/06/27 05:06:13;;;;;;;;;;;;;;;17.52;100.00;101450.72;2613710;31;20377;-62
2022/06/27 05:08:41;;;;;;;;;;;;;;;17.69;100.00;101454.28;2611668;36;19957;-58
2022/06/27 05:11:10;;;;;;;;;;;;;;;17.83;100.00;101447.34;2612423;36;19947;-58
2022/06/27 05:13:38;;;;;;;;;;;;;;;18.06;100.00;101430.34;2613524;36;19946;-58
2022/06/27 05:16:06;;;;;;;;;;;;;;;18.33;100.00;101425.53;2611761;31;19961;-58
2022/06/27 05:18:37;;;;;;;;;;;;;;;18.45;100.00;101405.06;2592826;36;19977;-58
2022/06/27 05:21:05;;;;;;;;;;;;;;;18.49;100.00;101409.16;2612052;31;19978;-59
2022/06/27 05:23:33;;;;;;;;;;;;;;;18.62;100.00;101402.28;2612699;36;19969;-57
2022/06/27 05:26:04;;;;;;;;;;;;;;;18.41;100.00;101387.34;2610975;36;19998;-60
2022/06/27 05:28:32;;;;;;;;;;;;;;;18.52;100.00;101394.31;2613791;31;19957;-61
2022/06/27 05:31:00;;;;;;;;;;;;;;;18.51;100.00;101407.09;2609428;36;19954;-58
2022/06/27 05:33:28;;;;;;;;;;;;;;;18.23;100.00;101412.09;2611866;36;19947;-60
2022/06/27 05:36:00;;;;;;;;;;;;;;;18.36;100.00;101431.50;2610654;36;20384;-58
2022/06/27 05:38:28;;;;;;;;;;;;;;;18.17;100.00;101427.25;2613146;36;19946;-58
2022/06/27 05:40:56;;;;;;;;;;;;;;;17.85;100.00;101436.28;2614279;31;20348;-58
2022/06/27 05:43:24;;;;;;;;;;;;;;;18.03;100.00;101430.69;2612428;36;19977;-58
2022/06/27 05:45:53;;;;;;;;;;;;;;;18.15;100.00;101432.03;2610290;36;19946;-58
2022/06/27 05:48:21;;;;;;;;;;;;;;;18.18;100.00;101428.97;2610803;36;19950;-58
2022/06/27 05:50:49;;;;;;;;;;;;;;;17.97;100.00;101436.81;2613025;36;19954;-60
2022/06/27 05:53:20;;;;;;;;;;;;;;;17.81;100.00;101448.53;2610072;36;20467;-59
2022/06/27 05:55:48;;;;;;;;;;;;;;;18.12;100.00;101456.88;2613565;36;19951;-59
2022/06/27 05:58:18;;;;;;;;;;;;;;;18.01;100.00;101462.69;2610479;36;19951;-59
2022/06/27 06:00:46;;;;;;;;;;;;;;;18.25;100.00;101450.06;2613610;36;20355;-59
2022/06/27 06:03:15;;;;;;;;;;;;;;;18.20;100.00;101439.69;2612421;36;19991;-62
2022/06/27 06:05:44;;;;;;;;;;;;;;;18.40;100.00;101437.44;2614024;36;19958;-59
2022/06/27 06:08:14;;;;;;;;;;;;;;;18.72;100.00;101432.91;2611362;31;19950;-60
2022/06/27 06:10:45;;;;;;;;;;;;;;;18.92;100.00;101436.13;2610603;31;20344;-59
2022/06/27 06:13:13;;;;;;;;;;;;;;;18.67;100.00;101465.34;2611317;36;19981;-57
2022/06/27 06:15:41;;;;;;;;;;;;;;;18.47;100.00;101479.31;2608325;36;19955;-56
2022/06/27 06:18:09;;;;;;;;;;;;;;;18.17;100.00;101498.09;2610740;36;19951;-60
2022/06/27 06:20:38;;;;;;;;;;;;;;;18.53;100.00;101514.06;2611112;36;19977;-58
2022/06/27 06:23:06;;;;;;;;;;;;;;;18.69;100.00;101525.97;2612500;31;19962;-59
2022/06/27 06:25:34;;;;;;;;;;;;;;;18.46;100.00;101513.09;2612794;31;19977;-58
2022/06/27 06:28:06;;;;;;;;;;;;;;;18.50;100.00;101528.03;2612151;36;19954;-58
2022/06/27 06:30:34;;;;;;;;;;;;;;;18.64;100.00;101525.63;2612828;36;19954;-59
2022/06/27 06:33:04;;;;;;;;;;;;;;;18.73;100.00;101544.53;2612598;36;20355;-58
2022/06/27 06:35:33;;;;;;;;;;;;;;;18.67;100.00;101552.59;2613083;36;20335;-60
2022/06/27 06:38:01;;;;;;;;;;;;;;;18.50;100.00;101557.19;2610378;36;21114;-60
2022/06/27 06:40:30;;;;;;;;;;;;;;;18.24;100.00;101543.72;2613499;36;20085;-57
2022/06/27 06:43:00;;;;;;;;;;;;;;;18.29;100.00;101535.91;2613601;36;20295;-59
2022/06/27 06:45:31;;;;;;;;;;;;;;;18.07;100.00;101532.84;2610908;36;20408;-63
2022/06/27 06:47:59;;;;;;;;;;;;;;;18.04;100.00;101525.00;2603720;36;19946;-58
2022/06/27 06:50:27;;;;;;;;;;;;;;;18.20;100.00;101535.91;2608829;36;19950;-61
2022/06/27 06:52:55;;;;;;;;;;;;;;;18.36;100.00;101545.13;2609508;36;19947;-58
2022/06/27 06:55:26;;;;;;;;;;;;;;;18.38;100.00;101551.22;2611244;36;20016;-59
2022/06/27 06:57:54;;;;;;;;;;;;;;;18.57;100.00;101558.22;2611823;36;20364;-59
2022/06/27 07:00:22;;;;;;;;;;;;;;;18.43;100.00;101564.34;2612662;36;19962;-58
2022/06/27 07:02:55;;;;;;;;;;;;;;;18.51;100.00;101557.00;2610678;36;19955;-59
2022/06/27 07:05:25;;;;;;;;;;;;;;;18.70;100.00;101553.06;2611310;36;20379;-62
2022/06/27 07:07:54;;;;;;;;;;;;;;;18.90;100.00;101537.22;2609699;36;20054;-63
2022/06/27 07:10:23;;;;;;;;;;;;;;;19.15;100.00;101534.41;2613275;31;19947;-59
2022/06/27 07:12:51;;;;;;;;;;;;;;;19.39;100.00;101519.81;2611056;36;19955;-58
2022/06/27 07:15:20;;;;;;;;;;;;;;;19.25;100.00;101509.63;2612108;36;19957;-62
2022/06/27 07:17:51;;;;;;;;;;;;;;;19.29;100.00;101491.00;2611972;36;19954;-59
2022/06/27 07:20:22;;;;;;;;;;;;;;;19.17;100.00;101483.25;2610069;31;19946;-59
2022/06/27 07:22:51;;;;;;;;;;;;;;;19.00;100.00;101476.16;2607610;36;19951;-58
2022/06/27 07:25:19;;;;;;;;;;;;;;;19.06;100.00;101470.81;2610922;31;19950;-58
2022/06/27 07:27:48;;;;;;;;;;;;;;;19.00;100.00;101470.69;2611512;36;19954;-63
2022/06/27 07:30:19;;;;;;;;;;;;;;;18.93;100.00;101480.59;2610823;36;20103;-59
2022/06/27 07:32:48;;;;;;;;;;;;;;;18.94;100.00;101476.88;2611906;31;20486;-58
2022/06/27 07:35:17;;;;;;;;;;;;;;;18.89;100.00;101461.88;2612140;36;19946;-58
2022/06/27 07:37:51;;;;;;;;;;;;;;;18.74;100.00;101467.19;2612456;31;20091;-62
2022/06/27 07:40:20;;;;;;;;;;;;;;;18.81;100.00;101461.00;2610742;36;19954;-58
2022/06/27 07:42:49;;;;;;;;;;;;;;;18.88;100.00;101449.25;2612685;31;19946;-59
2022/06/27 07:45:18;;;;;;;;;;;;;;;19.04;100.00;101461.97;2611383;36;20857;-59
2022/06/27 07:47:47;;;;;;;;;;;;;;;19.55;100.00;101464.25;2607224;36;19951;-60
2022/06/27 07:50:36;;;;;;;;;;;;;;;19.49;100.00;101469.59;2602701;36;20662;-59
2022/06/27 07:53:17;;;;;;;;;;;;;;;19.06;100.00;101481.72;2609022;36;19947;-60
2022/06/27 07:55:46;;;;;;;;;;;;;;;19.04;100.00;101493.88;2610223;36;20073;-59
2022/06/27 07:58:16;;;;;;;;;;;;;;;19.02;100.00;101498.63;2604046;36;20417;-63
2022/06/27 08:00:45;;;;;;;;;;;;;;;19.02;100.00;101512.28;2610397;36;19989;-58
2022/06/27 08:05:55;;;;;;;;;;;;;;;19.61;100.00;101514.59;2612105;36;19934;-61
2022/06/27 08:08:26;;;;;;;;;;;;;;;20.33;100.00;101507.06;2611811;36;20578;-59
2022/06/27 08:10:54;;;;;;;;;;;;;;;20.02;100.00;101491.59;2611823;36;19947;-59
2022/06/27 08:13:23;;;;;;;;;;;;;;;19.88;100.00;101513.22;2615029;31;19992;-59
2022/06/27 08:15:51;;;;;;;;;;;;;;;20.27;100.00;101517.72;2613507;36;20351;-58
2022/06/27 08:18:19;;;;;;;;;;;;;;;21.11;100.00;101513.09;2613089;36;19946;-59
2022/06/27 08:20:48;;;;;;;;;;;;;;;21.44;100.00;101507.22;2613419;31;19985;-57
2022/06/27 08:23:17;;;;;;;;;;;;;;;20.97;100.00;101512.06;2612967;36;19946;-58
2022/06/27 08:25:48;;;;;;;;;;;;;;;20.94;100.00;101520.66;2614056;36;20304;-58
2022/06/27 08:28:17;;;;;;;;;;;;;;;21.11;100.00;101515.81;2611100;36;19950;-58
2022/06/27 08:30:46;;;;;;;;;;;;;;;21.51;100.00;101519.13;2613466;36;19986;-59
2022/06/27 08:33:14;;;;;;;;;;;;;;;21.40;100.00;101534.09;2613072;36;19946;-59
2022/06/27 08:35:44;;;;;;;;;;;;;;;21.33;100.00;101541.38;2614653;36;19951;-59
2022/06/27 08:38:12;;;;;;;;;;;;;;;21.32;100.00;101547.94;2612738;36;20357;-59
2022/06/27 08:40:40;;;;;;;;;;;;;;;21.11;100.00;101552.28;2613168;36;19955;-59
2022/06/27 08:43:12;;;;;;;;;;;;;;;21.32;100.00;101543.28;2614137;36;19946;-59
2022/06/27 08:45:44;;;;;;;;;;;;;;;21.33;100.00;101531.31;2612112;39;20392;-58
2022/06/27 08:48:13;;;;;;;;;;;;;;;21.43;100.00;101535.63;2613230;36;20022;-61
2022/06/27 08:50:42;;;;;;;;;;;;;;;21.29;100.00;101543.66;2614080;36;19959;-58
2022/06/27 08:53:12;;;;;;;;;;;;;;;21.22;100.00;101537.25;2613449;36;20019;-60
2022/06/27 08:55:44;;;;;;;;;;;;;;;21.51;100.00;101519.13;2613850;36;19958;-58
2022/06/27 08:58:16;;;;;;;;;;;;;;;21.81;100.00;101527.25;2604921;36;19950;-64
2022/06/27 09:00:45;;;;;;;;;;;;;;;21.98;100.00;101541.53;2613768;36;19950;-60
2022/06/27 09:03:13;;;;;;;;;;;;;;;21.66;100.00;101551.97;2612083;36;19968;-59
2022/06/27 09:05:42;;;;;;;;;;;;;;;21.67;100.00;101557.25;2613268;36;19947;-59
2022/06/27 09:08:10;;;;;;;;;;;;;;;22.16;100.00;101550.16;2606978;36;19945;-59
2022/06/27 09:10:40;;;;;;;;;;;;;;;22.13;100.00;101563.41;2613226;36;19978;-60
2022/06/27 09:13:09;;;;;;;;;;;;;;;21.74;100.00;101562.78;2613752;36;19950;-62
2022/06/27 09:15:52;;;;;;;;;;;;;;;21.02;100.00;101572.56;2612465;36;20470;-62
2022/06/27 09:18:21;;;;;;;;;;;;;;;20.56;100.00;101568.03;2611916;31;19950;-57
2022/06/27 09:20:54;;;;;;;;;;;;;;;20.53;100.00;101560.19;2614038;36;20002;-59
2022/06/27 09:23:31;;;;;;;;;;;;;;;21.23;100.00;101560.88;2613991;31;20445;-61
2022/06/27 09:25:59;;;;;;;;;;;;;;;21.60;100.00;101555.44;2610355;36;20404;-60
2022/06/27 09:28:39;;;;;;;;;;;;;;;20.95;100.00;101550.56;2612400;36;19958;-58
2022/06/27 09:31:12;;;;;;;;;;;;;;;20.44;100.00;101556.69;2609605;36;19953;-58
2022/06/27 09:33:41;;;;;;;;;;;;;;;20.99;100.00;101562.84;2610075;32;19950;-57
2022/06/27 09:36:15;;;;;;;;;;;;;;;20.97;100.00;101553.97;2609493;36;19974;-59
2022/06/27 09:38:44;;;;;;;;;;;;;;;21.18;100.00;101560.56;2609931;36;19947;-58
2022/06/27 09:41:14;;;;;;;;;;;;;;;20.66;100.00;101559.59;2608321;36;20512;-63
2022/06/27 09:43:44;;;;;;;;;;;;;;;20.75;100.00;101557.63;2612057;36;20469;-63
2022/06/27 09:46:17;;;;;;;;;;;;;;;20.97;100.00;101555.84;2610775;36;20469;-60
2022/06/27 09:48:46;;;;;;;;;;;;;;;21.44;100.00;101561.97;2611395;36;19950;-61
2022/06/27 09:51:16;;;;;;;;;;;;;;;22.39;100.00;101544.50;2611500;31;19950;-59
2022/06/27 09:53:48;;;;;;;;;;;;;;;22.71;100.00;101552.34;2609860;36;19950;-59
2022/06/27 09:56:18;;;;;;;;;;;;;;;23.20;100.00;101553.31;2611139;31;20340;-58
2022/06/27 09:58:46;;;;;;;;;;;;;;;23.61;100.00;101563.41;2611057;36;20037;-63
2022/06/27 10:01:17;;;;;;;;;;;;;;;23.54;100.00;101579.03;2608976;36;19981;-59
2022/06/27 10:03:45;;;;;;;;;;;;;;;22.37;100.00;101587.72;2609544;36;19955;-61
2022/06/27 10:06:16;;;;;;;;;;;;;;;22.49;100.00;101589.94;2610905;36;19969;-58
2022/06/27 10:08:48;;;;;;;;;;;;;;;22.78;100.00;101585.34;2598287;36;19972;-59
2022/06/27 10:11:16;;;;;;;;;;;;;;;23.07;100.00;101590.59;2610172;36;20430;-59
2022/06/27 10:13:45;;;;;;;;;;;;;;;21.64;100.00;101585.03;2608548;36;20490;-62
2022/06/27 10:16:14;;;;;;;;;;;;;;;21.68;100.00;101571.78;2610289;36;19950;-62
2022/06/27 10:19:06;;;;;;;;;;;;;;;21.38;100.00;101574.53;2609179;36;19950;-59
2022/06/27 10:21:35;;;;;;;;;;;;;;;22.16;100.00;101566.63;2610059;36;19954;-59
2022/06/27 10:24:18;;;;;;;;;;;;;;;22.16;100.00;101569.34;2610120;36;19950;-59
2022/06/27 10:26:46;;;;;;;;;;;;;;;22.03;100.00;101572.81;2613522;36;20338;-61
2022/06/27 10:29:47;;;;;;;;;;;;;;;22.37;100.00;101562.19;2613591;36;20404;-59
2022/06/27 10:32:30;;;;;;;;;;;;;;;21.77;100.00;101567.03;2612058;36;19978;-58
2022/06/27 10:35:11;;;;;;;;;;;;;;;22.35;100.00;101561.56;2612858;36;19954;-60
2022/06/27 10:37:40;;;;;;;;;;;;;;;21.81;100.00;101557.38;2613037;36;19946;-59
2022/06/27 10:40:23;;;;;;;;;;;;;;;21.72;100.00;101547.59;2613023;36;19973;-62
2022/06/27 10:42:52;;;;;;;;;;;;;;;22.66;100.00;101547.44;2612094;36;19946;-60
2022/06/27 10:45:25;;;;;;;;;;;;;;;23.08;100.00;101542.84;2612990;36;19971;-61
2022/06/27 10:47:54;;;;;;;;;;;;;;;22.51;100.00;101549.44;2613864;36;20455;-59
2022/06/27 10:50:26;;;;;;;;;;;;;;;22.54;100.00;101546.28;2613700;31;19951;-59
2022/06/27 10:53:14;;;;;;;;;;;;;;;22.01;100.00;101547.50;2613613;36;19953;-62
2022/06/27 10:55:45;;;;;;;;;;;;;;;22.67;100.00;101543.66;2612678;31;20444;-58
2022/06/27 10:58:22;;;;;;;;;;;;;;;23.06;100.00;101533.97;2614313;36;19950;-66
2022/06/27 11:00:50;;;;;;;;;;;;;;;23.69;100.00;101526.66;2613380;36;19956;-58
2022/06/27 11:03:23;;;;;;;;;;;;;;;24.19;100.00;101512.59;2613633;36;19947;-58
2022/06/27 11:05:55;;;;;;;;;;;;;;;24.89;100.00;101521.25;2612198;36;19972;-58
2022/06/27 11:08:24;;;;;;;;;;;;;;;24.24;100.00;101515.59;2611517;36;19958;-59
2022/06/27 11:10:55;;;;;;;;;;;;;;;23.57;100.00;101534.66;2605131;31;19958;-58
2022/06/27 11:13:39;;;;;;;;;;;;;;;22.76;100.00;101538.84;2613042;31;19950;-63
2022/06/27 11:16:07;;;;;;;;;;;;;;;22.80;100.00;101534.66;2606876;36;20371;-58
2022/06/27 11:18:45;;;;;;;;;;;;;;;23.40;100.00;101540.50;2612599;36;20440;-58
2022/06/27 11:21:14;;;;;;;;;;;;;;;23.12;100.00;101537.00;2612793;36;19950;-58
2022/06/27 11:23:55;;;;;;;;;;;;;;;22.19;100.00;101529.75;2613914;36;19954;-58
2022/06/27 11:26:27;;;;;;;;;;;;;;;22.74;100.00;101536.31;2612969;36;19958;-60
2022/06/27 11:34:18;;;;;;;;;;;;;;;22.42;100.00;101547.88;2611234;36;19954;-62
2022/06/27 11:36:47;;;;;;;;;;;;;;;21.68;100.00;101547.97;2612435;36;20460;-56
2022/06/27 11:39:16;;;;;;;;;;;;;;;21.68;100.00;101558.09;2613088;36;19987;-58
2022/06/27 11:41:47;;;;;;;;;;;;;;;21.79;100.00;101562.19;2610782;36;20456;-59
2022/06/27 11:44:15;;;;;;;;;;;;;;;21.30;100.00;101567.28;2611832;31;19955;-58
2022/06/27 11:46:45;;;;;;;;;;;;;;;21.15;100.00;101566.44;2612645;36;19969;-60
2022/06/27 11:49:14;;;;;;;;;;;;;;;21.48;100.00;101566.88;2612317;36;19975;-63
2022/06/27 11:51:43;;;;;;;;;;;;;;;21.50;100.00;101567.56;2612552;36;19946;-63
2022/06/27 11:54:12;;;;;;;;;;;;;;;21.55;100.00;101563.41;2612529;36;19969;-58
2022/06/27 11:56:41;;;;;;;;;;;;;;;21.37;100.00;101559.13;2612850;36;19951;-63
2022/06/27 11:59:13;;;;;;;;;;;;;;;21.41;100.00;101563.19;2613034;36;19954;-58
2022/06/27 12:01:52;;;;;;;;;;;;;;;21.43;100.00;101557.53;2612982;36;19966;-58
2022/06/27 12:04:21;;;;;;;;;;;;;;;21.67;100.00;101542.66;2612298;36;20370;-58
2022/06/27 12:06:50;;;;;;;;;;;;;;;21.23;100.00;101552.66;2612241;36;20043;-58
2022/06/27 12:09:19;;;;;;;;;;;;;;;21.34;100.00;101545.84;2612354;36;20416;-59
2022/06/27 12:12:04;;;;;;;;;;;;;;;21.43;100.00;101538.38;2613637;36;20321;-59
2022/06/27 12:14:46;;;;;;;;;;;;;;;21.52;100.00;101539.97;2604526;36;20072;-59
2022/06/27 12:17:14;;;;;;;;;;;;;;;21.67;100.00;101543.53;2610772;36;20611;-62
2022/06/27 12:19:42;;;;;;;;;;;;;;;21.17;100.00;101556.13;2612293;31;19980;-58
2022/06/27 12:22:12;;;;;;;;;;;;;;;21.10;100.00;101560.69;2612588;36;19950;-58
2022/06/27 12:24:40;;;;;;;;;;;;;;;21.05;100.00;101561.22;2606155;36;19951;-59
2022/06/27 12:27:08;;;;;;;;;;;;;;;21.31;100.00;101552.53;2612607;36;20065;-59
2022/06/27 12:29:42;;;;;;;;;;;;;;;21.14;100.00;101549.16;2612303;36;19953;-58
2022/06/27 12:32:10;;;;;;;;;;;;;;;20.79;100.00;101551.59;2611570;36;20451;-60
2022/06/27 12:34:38;;;;;;;;;;;;;;;20.50;100.00;101551.53;2610785;36;19971;-60
2022/06/27 12:37:06;;;;;;;;;;;;;;;20.72;100.00;101552.53;2610832;36;19951;-58
2022/06/27 12:39:34;;;;;;;;;;;;;;;20.65;100.00;101542.28;2610662;36;19946;-59
2022/06/27 12:42:03;;;;;;;;;;;;;;;20.59;100.00;101544.94;2613288;36;19950;-60
2022/06/27 12:44:31;;;;;;;;;;;;;;;20.43;100.00;101554.13;2613343;36;20344;-59
2022/06/27 12:47:03;;;;;;;;;;;;;;;20.38;100.00;101548.38;2612697;31;19981;-59
2022/06/27 12:49:31;;;;;;;;;;;;;;;20.33;100.00;101540.69;2613050;36;19977;-59
2022/06/27 12:51:59;;;;;;;;;;;;;;;20.50;100.00;101535.13;2611782;36;19951;-59